Time;durP1;ratioP1;P1;durP2;ratioP2;P2;SDS_P1;SDS_P2;PMS_P1;PMS_P2;Temp;Humidity;BMP_temperature;BMP_pressure;BME280_temperature;BME280_humidity;BME280_pressure;Samples;Min_cycle;Max_cycle;Signal;HPM_P1;HPM_P2
2022/04/23 00:00:09;;;;;;;28.73;18.05;;;;;;;9.58;79.47;100230.28;5057127;28;20032;-76
2022/04/23 00:02:42;;;;;;;26.95;17.63;;;;;;;9.55;79.79;100240.97;5034631;28;20025;-75
2022/04/23 00:05:08;;;;;;;30.35;18.60;;;;;;;9.50;79.90;100238.06;5024333;28;20492;-76
2022/04/23 00:07:34;;;;;;;30.42;18.27;;;;;;;9.45;79.99;100235.13;5042766;28;20055;-76
2022/04/23 00:09:59;;;;;;;29.15;17.85;;;;;;;9.40;79.97;100235.63;5041498;28;20440;-75
2022/04/23 00:12:25;;;;;;;32.90;20.65;;;;;;;9.42;79.95;100238.88;5023302;28;20032;-75
2022/04/23 00:14:50;;;;;;;30.27;18.55;;;;;;;9.39;80.42;100233.19;5035937;28;20253;-76
2022/04/23 00:17:16;;;;;;;27.85;17.92;;;;;;;9.36;80.75;100236.91;5038393;28;20067;-76
2022/04/23 00:19:44;;;;;;;26.50;17.38;;;;;;;9.34;80.72;100238.84;5057393;28;20032;-76
2022/04/23 00:22:09;;;;;;;29.02;16.40;;;;;;;9.32;80.59;100240.78;5055713;28;20075;-75
2022/04/23 00:24:35;;;;;;;28.00;18.38;;;;;;;9.31;80.36;100239.19;5056209;28;20733;-75
2022/04/23 00:27:00;;;;;;;28.25;18.95;;;;;;;9.26;80.88;100242.25;5058089;28;20417;-77
2022/04/23 00:29:26;;;;;;;34.15;19.27;;;;;;;9.22;81.10;100235.78;5028514;28;20036;-76
2022/04/23 00:31:51;;;;;;;28.95;19.00;;;;;;;9.21;81.46;100239.34;5054218;28;20040;-76
2022/04/23 00:34:16;;;;;;;29.67;19.20;;;;;;;9.21;81.10;100236.75;5055481;28;20040;-76
2022/04/23 00:36:42;;;;;;;31.33;18.95;;;;;;;9.15;81.41;100237.38;5037379;28;20032;-75
2022/04/23 00:39:07;;;;;;;27.67;17.85;;;;;;;9.13;81.34;100228.97;5040133;28;20471;-78
2022/04/23 00:41:46;;;;;;;28.58;18.42;;;;;;;9.12;81.44;100232.53;5041312;28;20044;-75
2022/04/23 00:44:12;;;;;;;37.65;19.60;;;;;;;9.07;81.72;100242.56;5055668;28;20086;-77
2022/04/23 00:46:38;;;;;;;27.30;19.42;;;;;;;9.06;81.89;100240.91;5057284;28;20028;-75
2022/04/23 00:49:05;;;;;;;31.17;19.38;;;;;;;9.04;81.99;100237.69;5041444;28;20173;-76
2022/04/23 00:51:32;;;;;;;32.92;18.95;;;;;;;9.05;82.06;100231.56;5057618;28;20414;-78
2022/04/23 00:54:01;;;;;;;33.13;21.13;;;;;;;8.96;82.43;100230.72;5036529;28;20036;-75
2022/04/23 00:56:26;;;;;;;37.92;20.80;;;;;;;8.97;82.28;100232.34;5056113;28;20124;-76
2022/04/23 00:58:52;;;;;;;31.75;20.85;;;;;;;9.04;82.54;100230.75;5054442;28;20033;-76
2022/04/23 01:01:23;;;;;;;30.58;20.50;;;;;;;8.96;82.64;100225.56;5058326;28;20029;-75
2022/04/23 01:03:49;;;;;;;31.90;21.00;;;;;;;8.93;82.73;100229.28;5055240;28;20039;-75
2022/04/23 01:06:15;;;;;;;38.40;20.42;;;;;;;8.90;82.80;100228.78;5036407;28;20036;-75
2022/04/23 01:08:41;;;;;;;36.72;20.48;;;;;;;8.85;83.20;100233.63;5054460;28;20422;-75
2022/04/23 01:11:06;;;;;;;35.80;20.23;;;;;;;8.86;83.14;100228.28;5038059;28;20123;-75
2022/04/23 01:13:32;;;;;;;32.03;20.70;;;;;;;8.88;83.02;100230.72;5036588;28;20079;-76
2022/04/23 01:16:16;;;;;;;36.55;21.65;;;;;;;8.80;83.37;100234.09;5041116;28;20029;-75
2022/04/23 01:18:42;;;;;;;36.42;20.73;;;;;;;8.76;83.64;100233.59;5057961;28;20044;-75
2022/04/23 01:21:13;;;;;;;36.13;21.17;;;;;;;8.75;83.79;100236.34;5044005;28;20485;-75
2022/04/23 01:23:41;;;;;;;32.00;20.55;;;;;;;8.73;83.88;100233.09;5052479;28;20147;-76
2022/04/23 01:26:08;;;;;;;34.97;21.25;;;;;;;8.69;84.23;100240.38;5040524;28;20062;-77
2022/04/23 01:28:35;;;;;;;28.73;20.20;;;;;;;8.67;83.90;100233.75;5057860;28;20048;-76
2022/04/23 01:31:01;;;;;;;33.10;20.15;;;;;;;8.64;83.92;100240.03;5059925;28;20385;-75
2022/04/23 01:33:27;;;;;;;32.92;20.45;;;;;;;8.56;84.41;100243.38;5058213;28;20777;-76
2022/04/23 01:35:52;;;;;;;35.80;21.77;;;;;;;8.57;84.55;100239.06;5044391;28;20025;-76
2022/04/23 01:38:18;;;;;;;31.88;21.02;;;;;;;8.54;84.68;100249.69;5055356;28;20378;-75
2022/04/23 01:40:43;;;;;;;32.47;20.42;;;;;;;8.50;84.83;100238.84;5057276;28;20028;-77
2022/04/23 01:43:09;;;;;;;36.20;22.88;;;;;;;8.55;84.95;100235.78;5030197;28;20043;-75
2022/04/23 01:45:36;;;;;;;32.38;20.77;;;;;;;8.65;84.49;100233.91;5054343;28;20499;-76
2022/04/23 01:48:02;;;;;;;38.47;20.95;;;;;;;8.58;84.24;100238.88;5057955;28;20040;-77
2022/04/23 01:50:27;;;;;;;36.00;21.65;;;;;;;8.51;84.87;100239.66;5039573;28;20093;-75
2022/04/23 01:52:53;;;;;;;29.15;20.08;;;;;;;8.52;84.84;100246.44;5025935;28;20610;-75
2022/04/23 01:55:19;;;;;;;31.98;20.65;;;;;;;8.50;85.24;100245.81;5056203;28;20435;-76
2022/04/23 01:57:44;;;;;;;29.83;20.20;;;;;;;8.49;84.84;100247.56;5057404;28;20020;-76
2022/04/23 02:00:13;;;;;;;33.05;20.55;;;;;;;8.45;85.12;100246.25;5065002;28;20036;-75
2022/04/23 02:02:39;;;;;;;29.55;19.38;;;;;;;8.43;85.19;100248.19;5041323;28;20107;-77
2022/04/23 02:05:05;;;;;;;31.73;20.90;;;;;;;8.39;85.53;100242.47;5057241;28;20020;-77
2022/04/23 02:07:35;;;;;;;32.85;20.80;;;;;;;8.36;85.61;100245.41;5037793;28;20049;-76
2022/04/23 02:10:00;;;;;;;32.15;20.15;;;;;;;8.39;85.57;100241.69;5058853;28;20025;-76
2022/04/23 02:12:26;;;;;;;29.95;19.73;;;;;;;8.36;85.98;100244.56;5042586;28;20506;-76
2022/04/23 02:14:51;;;;;;;32.55;20.02;;;;;;;8.39;85.85;100241.69;5040606;28;20336;-75
2022/04/23 02:17:17;;;;;;;34.25;20.60;;;;;;;8.40;85.64;100235.56;5043655;28;20043;-75
2022/04/23 02:19:42;;;;;;;38.03;22.38;;;;;;;8.35;85.88;100237.78;5056444;28;20070;-76
2022/04/23 02:22:07;;;;;;;36.08;21.65;;;;;;;8.26;86.66;100238.72;5046608;28;20037;-75
2022/04/23 02:24:33;;;;;;;33.47;20.30;;;;;;;8.32;86.48;100230.34;5042411;28;20047;-77
2022/04/23 02:26:58;;;;;;;31.58;20.70;;;;;;;8.28;86.87;100240.16;5060236;28;20122;-76
2022/04/23 02:29:24;;;;;;;32.88;20.98;;;;;;;8.28;86.87;100244.53;5040649;28;20036;-76
2022/04/23 02:31:49;;;;;;;35.28;21.38;;;;;;;8.28;86.93;100240.16;5057284;28;20604;-77
2022/04/23 02:34:16;;;;;;;32.17;21.20;;;;;;;8.30;87.13;100229.69;5042544;28;20451;-77
2022/04/23 02:36:43;;;;;;;31.00;19.67;;;;;;;8.23;86.91;100232.09;5021860;28;20060;-76
2022/04/23 02:39:09;;;;;;;32.88;20.23;;;;;;;8.21;87.15;100231.41;5023508;28;20028;-75
2022/04/23 02:41:34;;;;;;;33.13;21.58;;;;;;;8.29;86.84;100226.31;5040832;28;20033;-75
2022/04/23 02:44:00;;;;;;;34.13;20.30;;;;;;;8.22;86.94;100227.88;5038435;28;20033;-76
2022/04/23 02:46:26;;;;;;;31.13;18.73;;;;;;;8.15;87.04;100230.25;5058363;28;20438;-75
2022/04/23 02:48:51;;;;;;;32.30;20.63;;;;;;;8.08;87.51;100228.44;5041467;28;20037;-75
2022/04/23 02:51:17;;;;;;;32.38;19.95;;;;;;;8.07;87.44;100234.59;5061051;28;20390;-76
2022/04/23 02:53:43;;;;;;;31.50;20.35;;;;;;;8.11;87.73;100231.53;5055841;28;20504;-77
2022/04/23 02:56:13;;;;;;;31.67;19.90;;;;;;;8.07;87.82;100221.69;5060223;28;20060;-77
2022/04/23 02:58:40;;;;;;;33.50;21.15;;;;;;;8.17;87.73;100230.09;5036949;28;20037;-76
2022/04/23 03:01:09;;;;;;;31.55;20.70;;;;;;;8.09;88.23;100227.50;5057796;28;20146;-75
2022/04/23 03:03:36;;;;;;;29.55;20.60;;;;;;;8.06;88.09;100230.38;5041286;28;20801;-77
2022/04/23 03:06:02;;;;;;;31.00;20.92;;;;;;;8.00;88.21;100221.47;5044911;28;20094;-76
2022/04/23 03:08:28;;;;;;;30.80;20.08;;;;;;;8.06;88.40;100227.78;5035242;28;20039;-75
2022/04/23 03:10:53;;;;;;;30.75;19.50;;;;;;;8.09;88.22;100222.34;5026638;28;20032;-76
2022/04/23 03:13:19;;;;;;;33.13;19.75;;;;;;;8.02;88.15;100223.91;5059799;28;20536;-74
2022/04/23 03:15:45;;;;;;;28.73;18.52;;;;;;;8.02;88.23;100218.75;5059330;28;20162;-74
2022/04/23 03:18:13;;;;;;;33.28;20.63;;;;;;;7.97;88.98;100222.59;5040737;28;20405;-74
2022/04/23 03:20:40;;;;;;;33.10;20.17;;;;;;;7.98;88.99;100225.97;5034089;28;20064;-74
2022/04/23 03:23:06;;;;;;;36.55;21.73;;;;;;;8.14;88.62;100225.28;5042923;28;20120;-74
2022/04/23 03:25:32;;;;;;;33.38;21.60;;;;;;;8.05;89.16;100223.59;5054489;28;20033;-73
2022/04/23 03:28:00;;;;;;;33.03;20.85;;;;;;;7.99;90.05;100225.84;5039903;28;20481;-74
2022/04/23 03:30:26;;;;;;;32.47;20.65;;;;;;;8.00;90.07;100224.03;5060126;28;20032;-74
2022/04/23 03:32:52;;;;;;;33.25;20.67;;;;;;;8.06;90.25;100222.63;5037720;28;20531;-74
2022/04/23 03:35:18;;;;;;;35.65;22.20;;;;;;;8.04;89.51;100224.56;5054454;28;20683;-74
2022/04/23 03:37:44;;;;;;;35.25;22.13;;;;;;;7.95;90.36;100215.97;5034135;28;20048;-74
2022/04/23 03:40:11;;;;;;;35.35;22.33;;;;;;;7.94;90.92;100224.66;5041774;28;20043;-74
2022/04/23 03:42:37;;;;;;;41.75;23.65;;;;;;;7.99;91.04;100214.69;5056521;28;20165;-74
2022/04/23 03:45:05;;;;;;;41.47;24.08;;;;;;;7.93;91.14;100221.28;5039740;28;20143;-74
2022/04/23 03:47:31;;;;;;;39.60;23.73;;;;;;;7.96;91.28;100213.22;5055305;28;20458;-73
2022/04/23 03:50:07;;;;;;;41.63;23.83;;;;;;;7.90;91.45;100213.84;5039619;28;20047;-74
2022/04/23 03:52:32;;;;;;;40.70;24.48;;;;;;;7.86;91.88;100212.53;5055111;28;20371;-74
2022/04/23 03:54:58;;;;;;;39.63;24.33;;;;;;;7.87;92.02;100214.13;5036589;28;20032;-73
2022/04/23 03:57:23;;;;;;;43.85;26.23;;;;;;;7.92;92.13;100205.94;5041473;28;20393;-74
2022/04/23 03:59:49;;;;;;;40.75;25.10;;;;;;;7.90;92.37;100208.66;5055895;28;21861;-74
2022/04/23 04:02:14;;;;;;;42.45;25.98;;;;;;;7.84;92.68;100211.88;5025396;28;20041;-74
2022/04/23 04:04:41;;;;;;;42.20;25.63;;;;;;;7.84;92.50;100209.28;5054442;28;20024;-74
2022/04/23 04:07:07;;;;;;;41.28;24.58;;;;;;;7.86;92.48;100206.56;5055355;28;20039;-74
2022/04/23 04:09:32;;;;;;;41.05;25.38;;;;;;;7.83;92.85;100207.66;5039646;28;20036;-73
2022/04/23 04:12:04;;;;;;;43.42;26.70;;;;;;;7.93;92.62;100205.78;5038334;28;20028;-74
2022/04/23 04:14:35;;;;;;;44.95;28.02;;;;;;;7.92;92.49;100206.75;5051597;28;20139;-74
2022/04/23 04:17:07;;;;;;;46.25;26.58;;;;;;;7.83;92.96;100207.66;5055707;28;20042;-74
2022/04/23 04:19:33;;;;;;;44.05;26.98;;;;;;;7.74;93.42;100209.41;5035993;28;20496;-74
2022/04/23 04:21:59;;;;;;;51.65;30.80;;;;;;;7.78;93.91;100205.53;5056197;28;20028;-74
2022/04/23 04:24:27;;;;;;;47.67;29.00;;;;;;;7.84;93.25;100200.75;5034648;28;20174;-74
2022/04/23 04:26:53;;;;;;;53.50;29.70;;;;;;;7.87;93.62;100193.47;5055163;28;20390;-73
2022/04/23 04:29:19;;;;;;;50.17;29.40;;;;;;;7.83;94.08;100202.50;5056010;28;20036;-74
2022/04/23 04:31:48;;;;;;;53.03;30.75;;;;;;;7.87;93.83;100195.25;5021484;28;20036;-74
2022/04/23 04:34:28;;;;;;;52.55;31.17;;;;;;;7.87;94.00;100198.63;5055628;28;20073;-74
2022/04/23 04:37:05;;;;;;;51.60;30.05;;;;;;;7.91;94.25;100197.41;5054739;28;21094;-74
2022/04/23 04:39:31;;;;;;;53.55;31.95;;;;;;;7.91;94.49;100196.56;5040247;28;20120;-74
2022/04/23 04:41:56;;;;;;;55.03;33.10;;;;;;;7.92;94.51;100188.66;5039336;28;20021;-73
2022/04/23 04:44:22;;;;;;;57.75;33.20;;;;;;;7.97;94.58;100193.41;5037940;28;20506;-74
2022/04/23 04:46:47;;;;;;;56.17;33.80;;;;;;;8.03;94.50;100197.94;5054011;28;20369;-74
2022/04/23 04:49:13;;;;;;;56.88;33.53;;;;;;;7.94;94.67;100197.06;5040426;28;20028;-74
2022/04/23 04:51:39;;;;;;;52.28;32.50;;;;;;;7.92;94.61;100204.16;5039641;28;20478;-74
2022/04/23 04:54:05;;;;;;;55.00;32.88;;;;;;;7.90;94.79;100203.50;5036882;28;20040;-74
2022/04/23 04:56:31;;;;;;;61.63;34.67;;;;;;;7.94;95.06;100199.66;5039791;28;20036;-74
2022/04/23 04:58:56;;;;;;;59.88;33.97;;;;;;;7.93;95.29;100204.97;5057206;28;20024;-74
2022/04/23 05:01:22;;;;;;;59.33;34.65;;;;;;;8.09;94.82;100204.25;5035401;28;20464;-74
2022/04/23 05:03:47;;;;;;;62.30;35.10;;;;;;;8.08;94.74;100202.63;5034456;28;20031;-74
2022/04/23 05:06:13;;;;;;;59.35;35.47;;;;;;;8.13;94.59;100208.94;5037518;28;20063;-74
2022/04/23 05:08:38;;;;;;;60.63;35.35;;;;;;;8.12;95.05;100216.88;5053103;28;20303;-74
2022/04/23 05:11:05;;;;;;;61.10;36.17;;;;;;;8.15;95.32;100208.78;5056089;28;20737;-74
2022/04/23 05:13:31;;;;;;;58.75;34.65;;;;;;;8.15;95.43;100208.78;5053860;28;20436;-74
2022/04/23 05:15:56;;;;;;;61.67;37.75;;;;;;;8.22;95.17;100206.41;5034866;28;20050;-74
2022/04/23 05:18:22;;;;;;;60.15;35.05;;;;;;;8.23;95.24;100206.28;5057414;28;20052;-74
2022/04/23 05:20:48;;;;;;;63.75;38.00;;;;;;;8.30;95.15;100203.84;5042919;28;20025;-74
2022/04/23 05:23:14;;;;;;;59.88;35.90;;;;;;;8.34;94.59;100211.16;5056763;28;20041;-74
2022/04/23 05:25:40;;;;;;;61.63;36.83;;;;;;;8.38;94.83;100203.88;5037831;28;20028;-74
2022/04/23 05:28:05;;;;;;;60.15;36.60;;;;;;;8.43;95.11;100199.09;5059027;28;20497;-74
2022/04/23 05:30:31;;;;;;;56.63;35.47;;;;;;;8.47;94.79;100199.59;5060796;28;20278;-74
2022/04/23 05:32:56;;;;;;;63.72;35.67;;;;;;;8.57;94.56;100202.88;5037336;28;20467;-74
2022/04/23 05:35:22;;;;;;;59.85;36.85;;;;;;;8.72;93.89;100200.47;5056137;28;20381;-74
2022/04/23 05:37:47;;;;;;;54.88;34.30;;;;;;;8.75;93.64;100195.78;5037026;28;20083;-74
2022/04/23 05:40:13;;;;;;;59.25;35.67;;;;;;;8.83;93.19;100189.00;5039375;28;20032;-74
2022/04/23 05:42:38;;;;;;;55.40;33.95;;;;;;;8.85;93.06;100192.25;5036991;28;20047;-74
2022/04/23 05:45:04;;;;;;;56.17;34.78;;;;;;;9.01;92.23;100186.31;5039738;28;20055;-74
2022/04/23 05:47:30;;;;;;;53.28;33.70;;;;;;;9.02;92.37;100191.28;5022029;28;20037;-74
2022/04/23 05:49:55;;;;;;;53.67;33.30;;;;;;;9.05;92.43;100187.59;5039441;28;20366;-74
2022/04/23 05:52:21;;;;;;;52.63;33.08;;;;;;;9.20;91.58;100185.19;5042676;28;20040;-75
2022/04/23 05:54:46;;;;;;;56.08;34.08;;;;;;;9.32;91.04;100186.44;5025376;28;20040;-74
2022/04/23 05:57:12;;;;;;;52.05;32.83;;;;;;;9.43;90.45;100186.13;5062023;28;20041;-74
2022/04/23 05:59:37;;;;;;;48.90;31.92;;;;;;;9.67;89.45;100187.06;5056302;28;20044;-75
2022/04/23 06:02:03;;;;;;;51.55;31.38;;;;;;;9.96;88.16;100189.09;5024589;28;20275;-74
2022/04/23 06:04:29;;;;;;;50.25;31.33;;;;;;;10.14;87.00;100184.50;5022694;28;20409;-74
2022/04/23 06:06:57;;;;;;;47.90;31.85;;;;;;;10.25;86.02;100187.72;5038560;28;20044;-74
2022/04/23 06:09:23;;;;;;;52.00;30.88;;;;;;;10.49;84.71;100184.22;5035918;28;20029;-74
2022/04/23 06:11:48;;;;;;;49.55;31.13;;;;;;;10.44;83.67;100183.94;5054162;28;20039;-74
2022/04/23 06:14:14;;;;;;;46.22;29.80;;;;;;;10.57;83.68;100183.34;5054655;28;20044;-74
2022/04/23 06:16:39;;;;;;;50.90;30.15;;;;;;;10.65;83.95;100196.28;5055469;28;20069;-74
2022/04/23 06:19:05;;;;;;;44.63;29.15;;;;;;;10.74;83.12;100191.84;5059059;28;20043;-74
2022/04/23 06:21:31;;;;;;;45.67;29.38;;;;;;;10.71;82.62;100191.22;5041908;28;20033;-74
2022/04/23 06:23:56;;;;;;;47.30;30.23;;;;;;;10.64;83.12;100190.31;5057390;28;20128;-74
2022/04/23 06:26:22;;;;;;;44.33;29.95;;;;;;;10.69;83.17;100188.00;5032190;28;20337;-74
2022/04/23 06:28:47;;;;;;;46.78;29.77;;;;;;;10.52;84.02;100189.88;5039573;28;20035;-74
2022/04/23 06:31:13;;;;;;;42.78;28.80;;;;;;;10.46;84.12;100192.34;5044173;28;20033;-73
2022/04/23 06:33:39;;;;;;;49.30;29.45;;;;;;;10.50;84.74;100191.81;5058539;28;20434;-74
2022/04/23 06:36:04;;;;;;;50.80;29.98;;;;;;;10.56;84.39;100184.34;5057724;28;20477;-74
2022/04/23 06:38:30;;;;;;;47.80;30.45;;;;;;;10.60;84.36;100186.41;5055822;28;20047;-74
2022/04/23 06:40:55;;;;;;;47.50;29.70;;;;;;;10.70;84.23;100189.63;5062378;28;20044;-74
2022/04/23 06:43:21;;;;;;;47.88;31.17;;;;;;;10.78;83.56;100193.16;5060282;28;20033;-74
2022/04/23 06:45:46;;;;;;;64.80;37.03;;;;;;;10.84;83.28;100185.47;5038197;28;20039;-74
2022/04/23 06:48:12;;;;;;;48.90;28.98;;;;;;;11.05;81.82;100191.81;5041791;28;20502;-74
2022/04/23 06:50:37;;;;;;;49.50;29.15;;;;;;;11.26;81.84;100196.34;5025330;28;20035;-74
2022/04/23 06:53:04;;;;;;;46.00;29.48;;;;;;;11.30;80.77;100195.84;5041411;28;20033;-74
2022/04/23 06:55:30;;;;;;;48.03;27.98;;;;;;;11.47;79.46;100193.91;5062533;28;20119;-74
2022/04/23 06:57:56;;;;;;;39.78;27.05;;;;;;;11.71;78.80;100184.25;5059761;28;20039;-74
2022/04/23 07:00:22;;;;;;;43.65;26.88;;;;;;;11.95;77.29;100187.63;5030365;28;20032;-74
2022/04/23 07:02:51;;;;;;;37.10;24.63;;;;;;;12.34;75.65;100187.31;5043974;28;20037;-75
2022/04/23 07:05:17;;;;;;;38.33;25.15;;;;;;;12.91;73.79;100177.09;5026229;28;20029;-74
2022/04/23 07:07:57;;;;;;;35.63;24.33;;;;;;;13.56;71.03;100183.03;5042668;28;20033;-74
2022/04/23 07:10:23;;;;;;;36.67;23.75;;;;;;;14.00;68.71;100179.28;5023478;28;20470;-74
2022/04/23 07:12:49;;;;;;;34.50;23.00;;;;;;;14.30;66.96;100176.41;5058520;28;20062;-74
2022/04/23 07:15:15;;;;;;;38.42;22.63;;;;;;;14.40;66.29;100169.00;5062776;28;20208;-75
2022/04/23 07:17:41;;;;;;;33.85;20.63;;;;;;;14.75;64.29;100172.34;5042571;28;20028;-74
2022/04/23 07:20:07;;;;;;;32.30;22.00;;;;;;;15.01;63.52;100168.13;5042934;28;20025;-74
2022/04/23 07:22:32;;;;;;;34.50;21.08;;;;;;;15.22;62.93;100174.16;5058543;28;20033;-75
2022/04/23 07:24:58;;;;;;;30.20;20.60;;;;;;;15.29;61.72;100162.69;5025382;28;20032;-74
2022/04/23 07:27:23;;;;;;;28.75;19.58;;;;;;;15.68;61.14;100162.84;5039997;28;20036;-74
2022/04/23 07:29:49;;;;;;;33.65;20.95;;;;;;;16.00;58.85;100161.19;5033045;28;20040;-75
2022/04/23 07:32:16;;;;;;;33.60;19.98;;;;;;;15.82;58.70;100153.19;5057471;28;20048;-75
2022/04/23 07:37:45;;;;;;;30.52;18.95;;;;;;;16.41;56.57;100146.91;4962490;28;20554;-74
2022/04/23 07:40:10;;;;;;;30.45;19.10;;;;;;;16.60;56.39;100145.19;4975603;28;20134;-75
2022/04/23 07:42:37;;;;;;;24.35;18.20;;;;;;;16.54;55.07;100144.22;5009605;28;20891;-74
2022/04/23 07:45:03;;;;;;;27.15;17.23;;;;;;;16.78;54.62;100144.44;5052276;28;20093;-75
2022/04/23 07:47:28;;;;;;;25.13;17.67;;;;;;;16.70;55.02;100150.72;5054555;28;20032;-74
2022/04/23 07:49:54;;;;;;;22.25;17.15;;;;;;;17.09;54.48;100142.84;5057689;28;20025;-75
2022/04/23 07:52:19;;;;;;;24.70;17.75;;;;;;;17.56;53.26;100151.06;5042160;28;20113;-75
2022/04/23 07:54:45;;;;;;;24.08;17.73;;;;;;;17.73;52.70;100147.88;5039131;28;20454;-75
2022/04/23 07:57:12;;;;;;;22.73;16.13;;;;;;;17.63;51.93;100145.72;5037832;28;20044;-75
2022/04/23 07:59:41;;;;;;;25.10;15.60;;;;;;;17.65;50.07;100141.06;5036700;28;20049;-75
2022/04/23 08:02:08;;;;;;;24.02;16.08;;;;;;;17.50;50.91;100141.44;5052910;28;20034;-76
2022/04/23 08:04:34;;;;;;;19.67;14.63;;;;;;;17.92;50.85;100146.84;5037223;28;20514;-75
2022/04/23 08:06:59;;;;;;;19.85;14.23;;;;;;;18.38;49.69;100145.44;5054106;28;20099;-75
2022/04/23 08:09:25;;;;;;;21.23;14.57;;;;;;;18.23;48.58;100137.19;5020328;28;20041;-76
2022/04/23 08:11:51;;;;;;;19.52;14.30;;;;;;;17.56;50.08;100143.19;5033644;28;20051;-76
2022/04/23 08:14:16;;;;;;;21.63;14.95;;;;;;;17.44;50.38;100142.31;5056078;28;20123;-75
2022/04/23 08:16:42;;;;;;;25.77;15.68;;;;;;;17.90;50.03;100133.97;5041407;28;20036;-75
2022/04/23 08:19:09;;;;;;;21.73;15.02;;;;;;;17.80;49.75;100132.84;5062531;28;20047;-76
2022/04/23 08:21:34;;;;;;;19.13;13.80;;;;;;;18.24;49.32;100128.31;5043260;28;20033;-75
2022/04/23 08:24:00;;;;;;;22.75;15.18;;;;;;;18.38;48.48;100134.94;5055964;28;20024;-75
2022/04/23 08:26:26;;;;;;;21.33;14.25;;;;;;;18.55;48.15;100126.44;5024064;28;20461;-76
2022/04/23 08:31:35;;;;;;;19.42;11.88;;;;;;;18.36;47.34;100133.59;5041897;28;20036;-75
2022/04/23 08:34:01;;;;;;;17.58;12.05;;;;;;;17.78;48.20;100140.94;5036513;28;20040;-76
2022/04/23 08:36:29;;;;;;;27.48;12.70;;;;;;;18.05;49.63;100138.81;5041583;28;20461;-76
2022/04/23 08:38:56;;;;;;;19.75;12.73;;;;;;;17.54;48.61;100140.00;5023296;28;20044;-75
2022/04/23 08:41:29;;;;;;;18.58;12.10;;;;;;;17.74;49.13;100133.72;5040946;28;20084;-76
2022/04/23 08:43:58;;;;;;;;;;;;;;;18.17;48.90;100141.50;5059621;28;20037;-75
2022/04/23 08:46:26;;;;;;;15.98;11.20;;;;;;;18.25;47.62;100130.72;5059218;28;19916;-75
2022/04/23 08:49:03;;;;;;;17.50;11.45;;;;;;;18.11;48.02;100138.97;5057720;28;20060;-75
2022/04/23 08:51:33;;;;;;;14.50;10.02;;;;;;;18.18;47.76;100144.94;5060465;28;20075;-75
2022/04/23 08:54:07;;;;;;;15.90;10.85;;;;;;;18.37;48.08;100136.00;5058340;28;20036;-75
2022/04/23 08:56:34;;;;;;;20.45;11.13;;;;;;;18.44;47.31;100136.72;5041390;28;20048;-76
2022/04/23 08:59:00;;;;;;;14.30;10.85;;;;;;;18.94;46.47;100132.94;5020840;28;20182;-75
2022/04/23 09:01:25;;;;;;;19.17;11.63;;;;;;;19.33;46.07;100125.41;5060288;28;20044;-75
2022/04/23 09:03:51;;;;;;;19.05;11.77;;;;;;;19.13;46.29;100127.59;5061466;28;20036;-75
2022/04/23 09:06:17;;;;;;;16.70;11.70;;;;;;;18.79;46.25;100133.34;5061063;28;20028;-76
2022/04/23 09:09:13;;;;;;;18.95;10.85;;;;;;;18.51;46.90;100147.09;5043502;28;20037;-76
2022/04/23 09:11:44;;;;;;;18.05;10.57;;;;;;;18.22;47.10;100138.22;5024340;28;20421;-75
2022/04/23 09:14:22;;;;;;;15.93;11.02;;;;;;;17.84;48.10;100134.03;5060333;28;20055;-74
2022/04/23 09:25:10;;;;;;;13.70;9.73;;;;;;;17.74;48.05;100129.28;5061716;28;20040;-75
2022/04/23 09:27:37;;;;;;;14.30;11.02;;;;;;;17.85;48.22;100125.94;5058544;28;20020;-75
2022/04/23 09:30:08;;;;;;;20.42;10.82;;;;;;;17.76;48.32;100131.69;5061700;28;20120;-76
2022/04/23 09:32:34;;;;;;;15.27;10.55;;;;;;;17.43;48.74;100128.41;5057966;28;20040;-76
2022/04/23 09:35:11;;;;;;;15.80;10.23;;;;;;;17.54;49.13;100133.94;5057223;28;20032;-75
2022/04/23 09:40:25;;;;;;;13.85;9.75;;;;;;;17.68;47.84;100123.09;5040692;28;20209;-76
2022/04/23 09:42:57;;;;;;;16.80;9.82;;;;;;;18.05;48.45;100117.06;5035995;28;20029;-75
2022/04/23 09:45:27;;;;;;;14.40;10.13;;;;;;;18.20;47.54;100121.91;5060512;28;20040;-75
2022/04/23 09:47:54;;;;;;;15.90;9.43;;;;;;;19.03;46.15;100112.41;5058353;28;20056;-76
2022/04/23 09:50:19;;;;;;;16.45;9.55;;;;;;;19.41;46.98;100111.09;5057613;28;20036;-76
2022/04/23 09:52:45;;;;;;;15.07;9.20;;;;;;;19.54;45.49;100108.22;5058110;28;20032;-76
2022/04/23 09:55:12;;;;;;;14.40;9.65;;;;;;;19.14;44.79;100113.44;5043128;28;20425;-76
2022/04/23 09:57:38;;;;;;;14.27;10.25;;;;;;;18.85;45.66;100114.09;5053112;28;20036;-75
2022/04/23 10:00:07;;;;;;;12.18;8.65;;;;;;;19.19;45.51;100114.34;5026398;28;20028;-76
2022/04/23 10:02:34;;;;;;;15.25;10.32;;;;;;;18.68;46.21;100110.50;5026204;28;20037;-76
2022/04/23 10:05:01;;;;;;;13.15;9.10;;;;;;;19.06;45.93;100104.03;5058444;28;20405;-76
2022/04/23 10:07:29;;;;;;;12.27;8.50;;;;;;;18.96;45.31;100104.59;5042348;28;20036;-77
2022/04/23 10:09:57;;;;;;;12.55;9.32;;;;;;;18.88;45.78;100104.97;5052729;28;20378;-76
2022/04/23 10:12:25;;;;;;;16.70;9.98;;;;;;;18.64;45.82;100107.50;5060997;28;20474;-76
2022/04/23 10:14:56;;;;;;;12.73;9.25;;;;;;;18.93;45.07;100105.09;5027917;28;20131;-76
2022/04/23 10:17:24;;;;;;;12.02;8.98;;;;;;;18.78;45.71;100102.06;5045633;28;20032;-76
2022/04/23 10:19:50;;;;;;;15.00;9.43;;;;;;;18.76;45.68;100107.56;5055104;28;20035;-76
2022/04/23 10:22:22;;;;;;;11.82;9.82;;;;;;;18.90;45.94;100108.16;5028309;28;20036;-76
2022/04/23 10:25:10;;;;;;;20.73;10.53;;;;;;;19.02;45.33;100101.09;5057433;28;20043;-76
2022/04/23 10:27:37;;;;;;;13.70;9.18;;;;;;;19.37;44.54;100099.47;5038760;28;20085;-76
2022/04/23 10:30:04;;;;;;;12.18;9.27;;;;;;;19.06;45.20;100098.78;5052666;28;20676;-76
2022/04/23 10:32:41;;;;;;;13.43;10.38;;;;;;;19.14;45.21;100098.47;5022349;28;20033;-75
2022/04/23 10:35:18;;;;;;;15.65;9.20;;;;;;;19.39;44.40;100100.03;5040348;28;20052;-76
2022/04/23 10:37:48;;;;;;;18.30;10.23;;;;;;;19.46;44.41;100092.81;5053783;28;20051;-75
2022/04/23 10:40:18;;;;;;;13.77;9.10;;;;;;;19.56;44.60;100095.66;5041020;28;20067;-76
2022/04/23 10:43:06;;;;;;;14.65;9.15;;;;;;;19.72;43.58;100093.31;5056841;28;20396;-76
2022/04/23 10:45:37;;;;;;;15.95;9.82;;;;;;;19.58;43.52;100083.06;5035300;28;20064;-75
2022/04/23 10:48:24;;;;;;;14.65;9.23;;;;;;;19.64;43.09;100090.00;5039940;28;20040;-76
2022/04/23 10:50:59;;;;;;;13.75;9.05;;;;;;;19.81;43.55;100086.69;5059763;28;20032;-76
2022/04/23 10:53:37;;;;;;;11.93;8.57;;;;;;;20.19;42.98;100085.25;5040183;28;20040;-76
2022/04/23 10:56:21;;;;;;;12.02;9.07;;;;;;;19.83;41.77;100090.69;5044115;28;20592;-76
2022/04/23 10:58:47;;;;;;;17.58;8.63;;;;;;;19.80;42.29;100075.38;5040082;28;20044;-76
2022/04/23 11:01:22;;;;;;;13.15;9.23;;;;;;;19.86;42.58;100072.84;5054544;28;20518;-77
2022/04/23 11:04:06;;;;;;;12.82;9.70;;;;;;;19.74;42.96;100083.38;5043598;28;20063;-76
2022/04/23 11:12:36;;;;;;;15.32;10.85;;;;;;;20.17;42.09;100085.53;5008839;28;20547;-76
2022/04/23 11:15:13;;;;;;;16.15;9.93;;;;;;;19.77;43.13;100075.03;5066726;28;20028;-75
2022/04/23 11:17:38;;;;;;;14.00;9.32;;;;;;;19.62;43.15;100086.81;5057936;28;20087;-76
2022/04/23 11:20:05;;;;;;;17.95;10.75;;;;;;;19.38;43.19;100087.91;5064944;28;20051;-76
2022/04/23 11:22:30;;;;;;;14.98;9.18;;;;;;;19.25;42.51;100081.88;5060776;28;20398;-77
2022/04/23 11:24:57;;;;;;;14.98;7.60;;;;;;;19.35;42.37;100078.66;5046457;28;20039;-76
2022/04/23 11:27:25;;;;;;;17.45;8.15;;;;;;;19.46;43.11;100079.69;5058670;28;20040;-76
2022/04/23 11:29:54;;;;;;;13.75;8.05;;;;;;;19.53;42.65;100075.06;5046064;28;20036;-76
2022/04/23 11:32:26;;;;;;;11.20;7.63;;;;;;;19.89;42.16;100065.28;5044727;28;20036;-76
2022/04/23 11:34:55;;;;;;;;;;;;;;;19.79;41.08;100070.34;5023648;28;20082;-76
2022/04/23 11:37:39;;;;;;;13.95;8.10;;;;;;;19.54;40.72;100055.66;5042465;28;19916;-77